Portada
METAR-TAF:

METAR-TAF

Aeroports :

Bratsk, Rússia

latitud: 56-22-15N, longitud: 101-41-55E, altitud: 490 m

Observació

L'informe es va fer fa 18 minuts, a les 11:30 UTC
Vent 4 kt del Nord-Oest
Temperatura 19°C
Humitat 78%
Pressió 1004 hPa
Visibilitat: 1100 m
Cel ennuvolat a una alçada de 1700 ft, Cumulonimbus.
fum

METAR: UIBB 051130Z 32002MPS 1100 R30/1100N FU BKN017CB 19/15 Q1004 R30/CLRD60 NOSIG RMK QFE710/0947

Hora: 19:48 (11:48 UTC)

Pronòstic

L'informe es va fer fa 48 minuts, a les 11:00 UTC
Pronòstic vàlid del 05 a les 12 UTC al 06 a les 12 UTC
Vent 6 kt del Nord-Oest
Visibilitat: 1300 m
Escasses núvols a una alçada de 200 ft
Cel ennuvolat a una alçada de 1600 ft, Cumulonimbus.
fum
Probabilitat 40% :
Temporalment
l' 05 a les 12 UTC al 05 a les 15 UTC
tempesta, pluja
Temporalment
l' 05 a les 15 UTC al 06 a les 03 UTC
Visibilitat: 0700 m
boira, fum

TAF: UIBB 051100Z 0512/0612 32003MPS 1300 FU FEW002 BKN016CB PROB40 TEMPO 0512/0515 TSRA TEMPO 0515/0603 0700 FG FU

Observacions i pronòstics meteorològics de més de 4000 aeroports (METAR i TAF).

Les estacions disponibles són els punts grocs i vermells al mapa.

Posi el ratolí al punt desitjat per veure el nom de l'estació.

Feu clic per veure les observacions i els pronòstics meteorològics.

Per canviar el mapa: feu clic els botons verds amb una creu de color negre per apropar; al botó verd amb un guió per allunyar la imatge; o en les fletxes verdes per a mapes adjacents.


METAR-TAF: